createdAt,value
2023-02-11T00:03:23.193Z,-4.17
2023-02-11T00:07:36.425Z,-4.25
2023-02-11T00:11:58.847Z,-4.30
2023-02-11T00:16:17.744Z,-4.31
2023-02-11T00:20:30.200Z,-4.26
2023-02-11T00:24:42.703Z,-4.33
2023-02-11T00:28:55.611Z,-4.36
2023-02-11T00:33:08.283Z,-4.42
2023-02-11T00:37:20.750Z,-4.43
2023-02-11T00:41:34.231Z,-4.40
2023-02-11T00:45:46.746Z,-4.41
2023-02-11T00:49:59.994Z,-4.51
2023-02-11T00:54:12.668Z,-4.61
2023-02-11T00:58:25.268Z,-4.72
2023-02-11T01:02:37.710Z,-4.84
2023-02-11T01:06:54.487Z,-4.68
2023-02-11T01:11:20.214Z,-4.75
2023-02-11T01:15:33.692Z,-4.76
2023-02-11T01:19:46.250Z,-4.80
2023-02-11T01:23:58.940Z,-4.84
2023-02-11T01:28:24.863Z,-4.72
2023-02-11T01:32:37.403Z,-4.72
2023-02-11T01:36:49.886Z,-4.90
2023-02-11T01:41:06.524Z,-4.84
2023-02-11T01:45:47.835Z,-4.87
2023-02-11T01:50:02.518Z,-4.87
2023-02-11T01:54:40.713Z,-4.69
2023-02-11T01:58:56.590Z,-4.66
2023-02-11T02:03:20.887Z,-4.76
2023-02-11T02:07:54.365Z,-4.80
2023-02-11T02:12:06.974Z,-4.87
2023-02-11T02:16:22.477Z,-4.99
2023-02-11T02:20:56.231Z,-5.02
2023-02-11T02:25:20.583Z,-4.96
2023-02-11T02:30:02.319Z,-4.92
2023-02-11T02:34:51.611Z,-5.07
2023-02-11T02:39:11.813Z,-5.13
2023-02-11T02:43:27.110Z,-5.24
2023-02-11T02:47:39.566Z,-5.14
2023-02-11T02:52:03.601Z,-5.07
2023-02-11T02:56:46.187Z,-5.00
2023-02-11T03:01:17.617Z,-5.22
2023-02-11T03:05:50.577Z,-5.24
2023-02-11T03:10:20.019Z,-5.05
2023-02-11T03:14:34.860Z,-5.05
2023-02-11T03:18:55.898Z,-4.97
2023-02-11T03:23:34.315Z,-4.86
2023-02-11T03:28:10.232Z,-4.93
2023-02-11T03:32:42.630Z,-4.95
2023-02-11T03:37:03.343Z,-4.91
2023-02-11T03:41:22.626Z,-4.97
2023-02-11T03:45:38.284Z,-4.96
2023-02-11T03:49:54.415Z,-5.01
2023-02-11T03:54:12.464Z,-4.99
2023-02-11T03:58:24.895Z,-4.97
2023-02-11T04:02:47.404Z,-4.99
2023-02-11T04:06:59.850Z,-4.92
2023-02-11T04:11:12.347Z,-4.88
2023-02-11T04:15:25.220Z,-4.75
2023-02-11T04:19:37.898Z,-4.60
2023-02-11T04:23:50.418Z,-4.46
2023-02-11T04:28:03.193Z,-4.41
2023-02-11T04:32:25.729Z,-4.58
2023-02-11T04:36:38.596Z,-4.34
2023-02-11T04:40:51.771Z,-4.29
2023-02-11T04:45:04.834Z,-4.27
2023-02-11T04:49:18.683Z,-4.26
2023-02-11T04:53:31.123Z,-4.20
2023-02-11T04:57:43.631Z,-4.20
2023-02-11T05:01:56.096Z,-4.20
2023-02-11T05:06:10.082Z,-4.09
2023-02-11T05:10:30.168Z,-4.03
2023-02-11T05:14:42.769Z,-3.71
2023-02-11T05:18:56.576Z,-3.58
2023-02-11T05:23:09.170Z,-3.39
2023-02-11T05:27:21.642Z,-3.32
2023-02-11T05:31:34.136Z,-3.36
2023-02-11T05:35:46.589Z,-3.19
2023-02-11T05:39:59.096Z,-3.02
2023-02-11T05:44:11.568Z,-2.76
2023-02-11T05:48:24.708Z,-2.56
2023-02-11T05:52:37.242Z,-2.31
2023-02-11T05:56:50.045Z,-2.22
2023-02-11T06:01:02.471Z,-2.10
2023-02-11T06:05:15.020Z,-2.00
2023-02-11T06:09:28.125Z,-1.95
2023-02-11T06:13:51.739Z,-1.96
2023-02-11T06:18:04.381Z,-1.87
2023-02-11T06:22:23.010Z,-1.79
2023-02-11T06:26:35.544Z,-1.69
2023-02-11T06:30:48.208Z,-1.52
2023-02-11T06:35:01.448Z,-1.58
2023-02-11T06:39:14.470Z,-1.35
2023-02-11T06:43:27.070Z,-1.36
2023-02-11T06:47:41.111Z,-1.31
2023-02-11T06:51:53.614Z,-1.35
2023-02-11T06:56:09.477Z,-1.15
2023-02-11T07:00:22.200Z,-1.08
2023-02-11T07:04:34.665Z,-0.93
2023-02-11T07:08:48.928Z,-0.75
2023-02-11T07:13:01.376Z,-0.52
2023-02-11T07:17:13.882Z,-0.56
2023-02-11T07:21:26.448Z,-0.45
2023-02-11T07:25:47.799Z,-0.50
2023-02-11T07:30:00.277Z,-0.30
2023-02-11T07:34:12.784Z,-0.14
2023-02-11T07:38:25.255Z,0.08
2023-02-11T07:42:38.092Z,-0.09
2023-02-11T07:46:50.760Z,-0.05
2023-02-11T07:51:20.481Z,0.15
2023-02-11T07:55:34.532Z,0.53
2023-02-11T07:59:47.033Z,0.80
2023-02-11T08:04:01.741Z,0.94
2023-02-11T08:08:14.165Z,1.48
2023-02-11T08:12:27.289Z,1.59
2023-02-11T08:16:40.248Z,2.13
2023-02-11T08:20:52.953Z,2.21
2023-02-11T08:25:15.615Z,2.29
2023-02-11T08:29:28.126Z,2.31
2023-02-11T08:33:43.897Z,2.45
2023-02-11T08:37:56.346Z,2.29
2023-02-11T08:42:08.838Z,2.51
2023-02-11T08:46:28.743Z,2.36
2023-02-11T08:50:41.240Z,2.42
2023-02-11T08:54:53.709Z,2.71
2023-02-11T08:59:07.816Z,2.95
2023-02-11T09:03:20.298Z,3.06
2023-02-11T09:07:32.790Z,2.66
2023-02-11T09:11:58.017Z,3.09
2023-02-11T09:16:19.040Z,2.93
2023-02-11T09:20:31.570Z,3.10
2023-02-11T09:24:48.929Z,3.12
2023-02-11T09:29:02.698Z,3.50
2023-02-11T09:33:15.195Z,3.28
2023-02-11T09:37:27.654Z,3.27
2023-02-11T09:42:44.265Z,3.22
2023-02-11T09:47:06.160Z,3.33
2023-02-11T09:51:38.231Z,3.39
2023-02-11T09:56:00.269Z,3.74
2023-02-11T10:00:33.068Z,4.23
2023-02-11T10:05:18.394Z,4.72
2023-02-11T10:10:04.562Z,5.11
2023-02-11T10:14:19.824Z,4.97
2023-02-11T10:18:46.726Z,5.12
2023-02-11T10:23:11.314Z,4.23
2023-02-11T10:27:32.495Z,4.46
2023-02-11T10:31:47.219Z,4.40
2023-02-11T10:36:13.632Z,4.76
2023-02-11T10:40:30.352Z,5.38
2023-02-11T10:44:58.133Z,6.39
2023-02-11T10:49:10.654Z,5.99
2023-02-11T10:53:25.144Z,5.60
2023-02-11T10:57:51.278Z,5.20
2023-02-11T11:02:20.067Z,5.51
2023-02-11T11:06:34.491Z,5.61
2023-02-11T11:11:05.212Z,5.68
2023-02-11T11:15:28.247Z,6.04
2023-02-11T11:19:40.670Z,5.52
2023-02-11T11:23:59.966Z,5.85
2023-02-11T11:28:25.846Z,5.95
2023-02-11T11:32:38.511Z,6.21
2023-02-11T11:37:12.716Z,6.93
2023-02-11T11:41:33.966Z,7.38
2023-02-11T11:45:57.468Z,6.90
2023-02-11T11:50:32.159Z,5.84
2023-02-11T11:54:54.097Z,5.92
2023-02-11T11:59:17.256Z,6.35
2023-02-11T12:04:03.271Z,6.34
2023-02-11T12:09:04.802Z,6.56
2023-02-11T12:13:44.117Z,6.29
2023-02-11T12:18:16.837Z,6.47
2023-02-11T12:23:04.127Z,6.85
2023-02-11T12:27:59.311Z,7.30
2023-02-11T12:33:03.549Z,7.08
2023-02-11T12:37:42.307Z,6.21
2023-02-11T12:42:22.714Z,6.60
2023-02-11T12:47:02.877Z,6.32
2023-02-11T12:51:59.172Z,6.36
2023-02-11T12:56:22.463Z,5.82
2023-02-11T13:00:54.044Z,5.85
2023-02-11T13:05:39.058Z,5.95
2023-02-11T13:10:25.011Z,6.27
2023-02-11T13:14:42.054Z,7.22
2023-02-11T13:19:14.897Z,8.51
2023-02-11T13:24:12.011Z,9.17
2023-02-11T13:28:30.411Z,7.82
2023-02-11T13:32:54.869Z,7.42
2023-02-11T13:37:21.742Z,7.34
2023-02-11T13:41:37.936Z,7.12
2023-02-11T13:45:52.593Z,8.04
2023-02-11T13:50:09.252Z,7.79
2023-02-11T13:54:36.755Z,8.04
2023-02-11T13:58:50.988Z,7.89
2023-02-11T14:03:30.343Z,8.30
2023-02-11T14:08:30.464Z,8.35
2023-02-11T14:12:42.955Z,7.81
2023-02-11T14:17:08.385Z,7.89
2023-02-11T14:21:35.850Z,7.55
2023-02-11T14:26:03.530Z,7.47
2023-02-11T14:30:50.462Z,7.50
2023-02-11T14:35:33.152Z,7.06
2023-02-11T14:40:07.179Z,7.35
2023-02-11T14:44:28.249Z,7.23
2023-02-11T14:48:47.610Z,7.21
2023-02-11T14:53:02.635Z,7.34
2023-02-11T14:57:19.885Z,7.01
2023-02-11T15:01:36.039Z,6.71
2023-02-11T15:05:58.704Z,6.63
2023-02-11T15:10:47.916Z,6.79
2023-02-11T15:15:01.473Z,6.80
2023-02-11T15:19:39.410Z,6.73
2023-02-11T15:24:01.489Z,6.64
2023-02-11T15:28:29.721Z,6.80
2023-02-11T15:32:45.962Z,6.63
2023-02-11T15:36:58.711Z,6.64
2023-02-11T15:41:36.922Z,6.57
2023-02-11T15:45:52.065Z,6.40
2023-02-11T15:50:07.109Z,6.26
2023-02-11T15:54:23.240Z,6.12
2023-02-11T15:58:43.990Z,6.12
2023-02-11T16:02:56.809Z,5.95
2023-02-11T16:07:50.518Z,5.81
2023-02-11T16:12:27.931Z,5.66
2023-02-11T16:16:41.512Z,5.47
2023-02-11T16:20:54.623Z,5.25
2023-02-11T16:25:08.840Z,5.21
2023-02-11T16:29:28.340Z,5.17
2023-02-11T16:33:40.834Z,4.90
2023-02-11T16:37:53.282Z,4.70
2023-02-11T16:42:07.988Z,4.66
2023-02-11T16:46:20.644Z,4.81
2023-02-11T16:50:33.085Z,4.68
2023-02-11T16:54:45.526Z,4.40
2023-02-11T16:58:58.079Z,4.46
2023-02-11T17:03:22.981Z,4.22
2023-02-11T17:07:36.095Z,4.56
2023-02-11T17:11:49.153Z,4.54
2023-02-11T17:16:01.675Z,4.52
2023-02-11T17:20:15.695Z,4.54
2023-02-11T17:24:28.266Z,4.62
2023-02-11T17:28:40.730Z,4.36
2023-02-11T17:32:53.371Z,4.38
2023-02-11T17:37:09.886Z,4.35
2023-02-11T17:41:22.367Z,4.14
2023-02-11T17:45:36.671Z,3.97
2023-02-11T17:49:49.165Z,3.74
2023-02-11T17:54:06.197Z,3.36
2023-02-11T17:58:18.700Z,3.03
2023-02-11T18:02:31.164Z,2.84
2023-02-11T18:06:44.116Z,2.94
2023-02-11T18:10:56.649Z,2.82
2023-02-11T18:15:09.568Z,2.77
2023-02-11T18:19:22.336Z,2.88
2023-02-11T18:23:34.978Z,2.97
2023-02-11T18:27:47.502Z,3.06
2023-02-11T18:32:00.506Z,3.11
2023-02-11T18:36:16.104Z,3.09
2023-02-11T18:40:28.645Z,2.96
2023-02-11T18:44:41.299Z,2.94
2023-02-11T18:48:56.417Z,2.93
2023-02-11T18:53:14.536Z,3.03
2023-02-11T18:57:27.082Z,3.27
2023-02-11T19:01:41.586Z,3.32
2023-02-11T19:05:55.128Z,3.30
2023-02-11T19:10:08.562Z,3.51
2023-02-11T19:14:28.640Z,3.49
2023-02-11T19:18:41.538Z,3.31
2023-02-11T19:22:53.966Z,3.34
2023-02-11T19:27:07.045Z,3.39
2023-02-11T19:31:19.646Z,3.44
2023-02-11T19:35:38.240Z,3.52
2023-02-11T19:39:50.842Z,3.48
2023-02-11T19:44:04.714Z,3.50
2023-02-11T19:48:27.207Z,3.64
2023-02-11T19:52:41.105Z,3.60
2023-02-11T19:56:55.587Z,3.38
2023-02-11T20:01:10.762Z,3.88
2023-02-11T20:05:23.194Z,3.79
2023-02-11T20:09:35.653Z,3.65
2023-02-11T20:13:48.126Z,3.71
2023-02-11T20:18:00.577Z,3.70
2023-02-11T20:22:12.997Z,3.74
2023-02-11T20:26:34.187Z,3.72
2023-02-11T20:30:46.692Z,3.67
2023-02-11T20:34:59.739Z,3.69
2023-02-11T20:39:17.826Z,3.66
2023-02-11T20:43:30.302Z,3.66
2023-02-11T20:47:52.771Z,3.73
2023-02-11T20:52:05.411Z,3.69
2023-02-11T20:56:22.122Z,3.77
2023-02-11T21:00:37.699Z,3.71
2023-02-11T21:04:51.772Z,3.92
2023-02-11T21:09:06.487Z,3.85
2023-02-11T21:13:18.925Z,3.81
2023-02-11T21:17:32.398Z,3.77
2023-02-11T21:21:45.192Z,3.77
2023-02-11T21:25:58.399Z,3.77
2023-02-11T21:30:12.395Z,3.69
2023-02-11T21:34:24.827Z,3.70
2023-02-11T21:38:37.468Z,3.89
2023-02-11T21:42:49.893Z,3.90
2023-02-11T21:47:02.438Z,3.96
2023-02-11T21:51:24.874Z,3.98
2023-02-11T21:55:38.587Z,3.89
2023-02-11T21:59:51.024Z,4.08
2023-02-11T22:04:04.462Z,4.10
2023-02-11T22:08:19.192Z,4.11
2023-02-11T22:12:32.619Z,4.07
2023-02-11T22:16:55.116Z,4.00
2023-02-11T22:21:13.011Z,3.98
2023-02-11T22:25:25.476Z,3.93
2023-02-11T22:29:37.905Z,4.05
2023-02-11T22:33:51.130Z,4.07
2023-02-11T22:38:05.253Z,4.19
2023-02-11T22:42:17.835Z,4.14
2023-02-11T22:46:30.536Z,4.01
2023-02-11T22:50:43.001Z,3.81
2023-02-11T22:54:55.933Z,3.90
2023-02-11T22:59:13.240Z,3.76
2023-02-11T23:03:26.027Z,3.61
2023-02-11T23:07:38.588Z,3.80
2023-02-11T23:11:55.090Z,3.94
2023-02-11T23:16:22.849Z,3.95
2023-02-11T23:20:41.403Z,3.90
2023-02-11T23:25:01.395Z,3.81
2023-02-11T23:29:14.294Z,3.75
2023-02-11T23:33:27.258Z,3.72
2023-02-11T23:37:39.750Z,3.75
2023-02-11T23:41:53.838Z,3.96
2023-02-11T23:46:08.273Z,3.98
2023-02-11T23:50:20.925Z,3.97
2023-02-11T23:54:34.235Z,4.03
2023-02-11T23:58:50.239Z,4.04
